createdAt,value
2018-04-10T00:01:14.015Z,29.93
2018-04-10T00:03:42.300Z,37.37
2018-04-10T00:06:10.571Z,52.50
2018-04-10T00:08:38.831Z,31.07
2018-04-10T00:11:07.105Z,26.17
2018-04-10T00:13:35.378Z,27.67
2018-04-10T00:16:04.410Z,31.37
2018-04-10T00:18:32.692Z,21.47
2018-04-10T00:21:00.957Z,19.60
2018-04-10T00:23:29.228Z,19.70
2018-04-10T00:25:57.484Z,17.23
2018-04-10T00:28:25.752Z,15.20
2018-04-10T00:30:54.019Z,24.00
2018-04-10T00:33:22.283Z,19.57
2018-04-10T00:35:51.467Z,22.63
2018-04-10T00:38:20.509Z,22.30
2018-04-10T00:40:48.781Z,19.40
2018-04-10T00:43:17.044Z,18.47
2018-04-10T00:45:45.306Z,19.77
2018-04-10T00:48:14.362Z,18.73
2018-04-10T00:50:42.624Z,18.50
2018-04-10T00:53:22.988Z,18.27
2018-04-10T00:55:51.260Z,19.43
2018-04-10T00:58:19.518Z,16.73
2018-04-10T01:00:47.792Z,14.70
2018-04-10T01:03:16.071Z,15.87
2018-04-10T01:05:44.324Z,23.13
2018-04-10T01:08:12.624Z,17.83
2018-04-10T01:10:40.885Z,16.57
2018-04-10T01:13:09.165Z,23.67
2018-04-10T01:15:37.442Z,18.27
2018-04-10T01:18:05.718Z,27.00
2018-04-10T01:20:34.057Z,21.97
2018-04-10T01:23:02.372Z,19.30
2018-04-10T01:25:30.628Z,14.70
2018-04-10T01:27:58.902Z,16.40
2018-04-10T01:30:27.935Z,19.50
2018-04-10T01:32:56.193Z,18.23
2018-04-10T01:35:24.452Z,17.00
2018-04-10T01:37:52.727Z,19.97
2018-04-10T01:40:21.747Z,14.83
2018-04-10T01:42:50.018Z,24.37
2018-04-10T01:45:18.439Z,15.80
2018-04-10T01:47:46.711Z,25.13
2018-04-10T01:50:14.982Z,17.23
2018-04-10T01:52:43.257Z,25.27
2018-04-10T01:55:11.511Z,17.10
2018-04-10T01:57:39.784Z,19.37
2018-04-10T02:00:08.155Z,13.70
2018-04-10T02:02:36.430Z,19.77
2018-04-10T02:05:04.703Z,35.60
2018-04-10T02:07:32.972Z,35.70
2018-04-10T02:10:18.981Z,33.10
2018-04-10T02:12:47.592Z,28.43
2018-04-10T02:15:15.879Z,25.73
2018-04-10T02:17:44.913Z,37.27
2018-04-10T02:20:13.189Z,29.50
2018-04-10T02:22:41.457Z,24.33
2018-04-10T02:25:09.777Z,24.20
2018-04-10T02:27:38.009Z,27.00
2018-04-10T02:30:07.058Z,25.20
2018-04-10T02:32:35.309Z,20.67
2018-04-10T02:35:03.595Z,17.37
2018-04-10T02:37:31.865Z,18.30
2018-04-10T02:40:00.134Z,25.33
2018-04-10T02:42:28.444Z,23.70
2018-04-10T02:44:56.704Z,22.50
2018-04-10T02:47:24.976Z,21.87
2018-04-10T02:49:53.247Z,18.00
2018-04-10T02:52:21.626Z,19.97
2018-04-10T02:54:49.882Z,30.17
2018-04-10T02:57:18.147Z,22.77
2018-04-10T02:59:46.419Z,22.07
2018-04-10T03:02:15.448Z,16.80
2018-04-10T03:04:43.717Z,24.80
2018-04-10T03:07:11.983Z,21.63
2018-04-10T03:09:40.270Z,23.17
2018-04-10T03:12:08.535Z,20.00
2018-04-10T03:14:36.817Z,20.90
2018-04-10T03:17:05.110Z,26.73
2018-04-10T03:19:33.379Z,27.33
2018-04-10T03:22:01.633Z,18.83
2018-04-10T03:24:29.942Z,17.10
2018-04-10T03:26:58.204Z,20.50
2018-04-10T03:29:26.483Z,21.57
2018-04-10T03:31:54.760Z,23.53
2018-04-10T03:34:23.024Z,19.80
2018-04-10T03:36:51.289Z,19.93
2018-04-10T03:39:19.559Z,16.80
2018-04-10T03:41:47.829Z,16.23
2018-04-10T03:44:16.888Z,18.63
2018-04-10T03:46:45.142Z,24.13
2018-04-10T03:49:13.401Z,22.77
2018-04-10T03:51:41.681Z,20.00
2018-04-10T03:54:09.949Z,27.57
2018-04-10T03:56:38.221Z,23.13
2018-04-10T03:59:06.494Z,16.83
2018-04-10T04:01:34.749Z,19.30
2018-04-10T04:04:03.773Z,26.17
2018-04-10T04:06:32.039Z,27.03
2018-04-10T04:09:00.382Z,18.57
2018-04-10T04:11:28.588Z,29.10
2018-04-10T04:13:56.856Z,20.23
2018-04-10T04:16:37.203Z,19.93
2018-04-10T04:19:18.113Z,26.13
2018-04-10T04:24:51.305Z,29.10
2018-04-10T04:27:19.744Z,25.47
2018-04-10T04:29:48.103Z,20.80
2018-04-10T04:32:16.440Z,26.57
2018-04-10T04:34:44.718Z,21.33
2018-04-10T04:37:13.823Z,27.10
2018-04-10T04:39:42.109Z,18.43
2018-04-10T04:42:10.364Z,23.50
2018-04-10T04:44:39.414Z,24.97
2018-04-10T04:47:07.678Z,18.47
2018-04-10T04:49:36.053Z,25.60
2018-04-10T04:52:04.333Z,26.77
2018-04-10T04:54:32.612Z,19.70
2018-04-10T04:57:00.875Z,24.53
2018-04-10T04:59:29.158Z,23.10
2018-04-10T05:01:57.443Z,26.60
2018-04-10T05:04:25.721Z,24.50
2018-04-10T05:06:54.008Z,25.83
2018-04-10T05:09:22.282Z,24.57
2018-04-10T05:11:50.760Z,23.70
2018-04-10T05:14:19.032Z,22.53
2018-04-10T05:16:47.309Z,25.10
2018-04-10T05:19:15.576Z,25.23
2018-04-10T05:21:43.879Z,22.60
2018-04-10T05:24:12.158Z,29.43
2018-04-10T05:26:41.219Z,26.30
2018-04-10T05:29:09.505Z,24.70
2018-04-10T05:31:37.771Z,26.10
2018-04-10T05:34:06.059Z,23.73
2018-04-10T05:36:34.328Z,36.43
2018-04-10T05:39:03.078Z,25.50
2018-04-10T05:41:31.408Z,22.40
2018-04-10T05:43:59.707Z,29.23
2018-04-10T05:46:29.068Z,32.40
2018-04-10T05:48:57.676Z,31.00
2018-04-10T05:51:25.937Z,29.20
2018-04-10T05:53:54.262Z,28.47
2018-04-10T05:56:22.590Z,30.03
2018-04-10T05:58:50.850Z,33.70
2018-04-10T06:01:19.097Z,24.50
2018-04-10T06:03:47.378Z,19.53
2018-04-10T06:06:15.670Z,23.67
2018-04-10T06:08:43.951Z,22.33
2018-04-10T06:11:12.213Z,23.73
2018-04-10T06:13:40.497Z,21.20
2018-04-10T06:16:08.773Z,32.90
2018-04-10T06:18:37.071Z,25.97
2018-04-10T06:21:05.341Z,29.27
2018-04-10T06:23:33.606Z,23.13
2018-04-10T06:26:01.872Z,27.40
2018-04-10T06:28:30.159Z,27.33
2018-04-10T06:30:58.488Z,24.90
2018-04-10T06:33:27.218Z,24.40
2018-04-10T06:35:55.505Z,28.10
2018-04-10T06:38:23.818Z,37.73
2018-04-10T06:40:53.603Z,31.03
2018-04-10T06:43:21.877Z,25.67
2018-04-10T06:45:50.183Z,28.83
2018-04-10T06:48:18.533Z,28.23
2018-04-10T06:50:46.797Z,25.60
2018-04-10T06:53:15.085Z,23.40
2018-04-10T06:55:43.357Z,21.40
2018-04-10T06:58:11.629Z,26.53
2018-04-10T07:00:40.153Z,23.13
2018-04-10T07:03:09.225Z,28.00
2018-04-10T07:05:37.508Z,25.93
2018-04-10T07:08:05.773Z,28.30
2018-04-10T07:10:34.100Z,34.87
2018-04-10T07:13:02.384Z,28.63
2018-04-10T07:15:30.697Z,25.90
2018-04-10T07:17:58.965Z,26.50
2018-04-10T07:20:27.248Z,31.43
2018-04-10T07:22:55.526Z,28.03
2018-04-10T07:25:23.835Z,27.13
2018-04-10T07:27:52.176Z,29.67
2018-04-10T07:30:20.469Z,29.40
2018-04-10T07:32:48.764Z,27.37
2018-04-10T07:35:17.037Z,26.03
2018-04-10T07:37:45.316Z,25.73
2018-04-10T07:40:13.593Z,20.77
2018-04-10T07:42:41.890Z,20.83
2018-04-10T07:45:11.052Z,28.83
2018-04-10T07:47:39.796Z,32.50
2018-04-10T07:50:08.077Z,25.50
2018-04-10T07:52:36.353Z,27.50
2018-04-10T07:55:04.653Z,26.80
2018-04-10T07:57:32.919Z,27.63
2018-04-10T08:00:01.219Z,24.60
2018-04-10T08:02:29.607Z,26.30
2018-04-10T08:04:57.978Z,27.43
2018-04-10T08:07:26.257Z,24.30
2018-04-10T08:12:29.179Z,23.30
2018-04-10T08:14:58.468Z,22.30
2018-04-10T08:17:26.763Z,25.40
2018-04-10T08:19:55.806Z,26.83
2018-04-10T08:22:24.088Z,23.40
2018-04-10T08:24:52.433Z,21.47
2018-04-10T08:27:20.698Z,21.60
2018-04-10T08:29:48.975Z,28.67
2018-04-10T08:32:17.251Z,29.40
2018-04-10T08:34:45.550Z,23.40
2018-04-10T08:37:13.878Z,24.20
2018-04-10T08:39:42.145Z,26.73
2018-04-10T08:42:10.710Z,17.60
2018-04-10T08:44:38.993Z,25.13
2018-04-10T08:47:07.304Z,21.70
2018-04-10T08:49:36.448Z,30.50
2018-04-10T08:52:04.839Z,19.80
2018-04-10T08:54:33.116Z,21.30
2018-04-10T08:57:01.401Z,19.43
2018-04-10T08:59:29.757Z,21.43
2018-04-10T09:01:58.033Z,19.33
2018-04-10T09:04:26.378Z,25.43
2018-04-10T09:06:54.655Z,26.77
2018-04-10T09:09:22.983Z,20.57
2018-04-10T09:11:51.311Z,23.30
2018-04-10T09:14:19.631Z,19.50
2018-04-10T09:16:47.909Z,20.87
2018-04-10T09:19:16.180Z,22.47
2018-04-10T09:21:44.444Z,18.00
2018-04-10T09:24:12.713Z,18.10
2018-04-10T09:26:41.018Z,17.93
2018-04-10T09:29:09.330Z,13.63
2018-04-10T09:31:38.362Z,12.47
2018-04-10T09:34:06.655Z,13.53
2018-04-10T09:36:35.026Z,19.20
2018-04-10T09:39:03.298Z,12.90
2018-04-10T09:41:31.560Z,13.13
2018-04-10T09:44:00.432Z,7.70
2018-04-10T09:46:28.684Z,10.03
2018-04-10T09:48:57.732Z,8.83
2018-04-10T09:51:25.991Z,5.13
2018-04-10T09:53:54.284Z,9.63
2018-04-10T09:56:22.685Z,5.03
2018-04-10T09:58:51.000Z,4.30
2018-04-10T10:01:20.081Z,2.80
2018-04-10T10:03:49.225Z,6.23
2018-04-10T10:06:17.506Z,7.30
2018-04-10T10:08:45.791Z,3.80
2018-04-10T10:11:14.067Z,4.57
2018-04-10T10:13:43.561Z,4.17
2018-04-10T10:16:12.598Z,6.10
2018-04-10T10:18:41.669Z,2.80
2018-04-10T10:21:10.825Z,6.30
2018-04-10T10:23:39.119Z,5.10
2018-04-10T10:26:07.408Z,3.83
2018-04-10T10:28:35.670Z,5.53
2018-04-10T10:31:03.946Z,5.53
2018-04-10T10:33:32.223Z,4.73
2018-04-10T10:36:00.514Z,5.33
2018-04-10T10:38:28.791Z,3.10
2018-04-10T10:40:57.156Z,3.93
2018-04-10T10:43:25.447Z,3.93
2018-04-10T10:45:54.471Z,2.03
2018-04-10T10:48:23.526Z,3.50
2018-04-10T10:50:51.835Z,3.53
2018-04-10T10:53:20.927Z,4.23
2018-04-10T10:55:49.994Z,2.87
2018-04-10T10:58:18.353Z,2.70
2018-04-10T11:00:46.648Z,4.67
2018-04-10T11:03:14.930Z,4.70
2018-04-10T11:05:43.287Z,3.87
2018-04-10T11:08:11.616Z,3.77
2018-04-10T11:10:40.664Z,5.90
2018-04-10T11:13:08.954Z,4.70
2018-04-10T11:15:38.032Z,7.60
2018-04-10T11:18:06.320Z,7.63
2018-04-10T11:20:34.593Z,2.20
2018-04-10T11:23:02.922Z,2.40
2018-04-10T11:25:31.187Z,2.77
2018-04-10T11:27:59.640Z,4.17
2018-04-10T11:30:29.459Z,2.60
2018-04-10T11:32:58.638Z,3.30
2018-04-10T11:35:27.022Z,7.87
2018-04-10T11:38:01.421Z,4.73
2018-04-10T11:40:29.828Z,2.47
2018-04-10T11:43:00.042Z,3.23
2018-04-10T11:45:28.329Z,4.00
2018-04-10T11:47:56.589Z,3.70
2018-04-10T11:50:24.891Z,5.80
2018-04-10T11:52:53.153Z,3.77
2018-04-10T11:55:21.505Z,5.50
2018-04-10T11:57:49.826Z,4.80
2018-04-10T12:00:18.933Z,8.87
2018-04-10T12:02:47.358Z,2.60
2018-04-10T12:05:15.647Z,6.27
2018-04-10T12:07:43.939Z,5.47
2018-04-10T12:10:12.217Z,2.83
2018-04-10T12:12:41.276Z,3.50
2018-04-10T12:15:09.597Z,9.97
2018-04-10T12:17:38.647Z,8.53
2018-04-10T12:20:06.910Z,4.73
2018-04-10T12:22:35.216Z,5.00
2018-04-10T12:25:03.490Z,6.50
2018-04-10T12:27:31.959Z,5.77
2018-04-10T12:30:00.335Z,6.30
2018-04-10T12:32:28.601Z,4.23
2018-04-10T12:34:56.970Z,4.10
2018-04-10T12:37:26.006Z,5.83
2018-04-10T12:39:54.273Z,7.87
2018-04-10T12:42:22.583Z,8.60
2018-04-10T12:44:51.636Z,6.10
2018-04-10T12:47:19.909Z,5.83
2018-04-10T12:49:48.168Z,4.07
2018-04-10T12:52:16.465Z,9.10
2018-04-10T12:54:44.735Z,7.20
2018-04-10T12:57:12.995Z,3.67
2018-04-10T12:59:41.289Z,7.00
2018-04-10T13:02:09.600Z,4.43
2018-04-10T13:04:37.901Z,5.93
2018-04-10T13:07:06.219Z,4.73
2018-04-10T13:09:34.732Z,3.40
2018-04-10T13:12:03.074Z,5.70
2018-04-10T13:14:31.446Z,9.07
2018-04-10T13:16:59.756Z,17.67
2018-04-10T13:19:28.045Z,7.07
2018-04-10T13:21:57.667Z,10.70
2018-04-10T13:24:25.955Z,10.10
2018-04-10T13:26:54.319Z,9.93
2018-04-10T13:29:23.384Z,13.23
2018-04-10T13:31:51.741Z,17.90
2018-04-10T13:34:20.029Z,15.80
2018-04-10T13:36:49.824Z,15.73
2018-04-10T13:39:18.211Z,14.27
2018-04-10T13:41:46.502Z,12.73
2018-04-10T13:44:14.776Z,15.67
2018-04-10T13:46:43.989Z,16.57
2018-04-10T13:49:13.072Z,15.57
2018-04-10T13:51:41.389Z,21.63
2018-04-10T13:54:09.665Z,16.50
2018-04-10T13:56:37.986Z,20.97
2018-04-10T13:59:06.245Z,26.20
2018-04-10T14:01:34.619Z,21.17
2018-04-10T14:04:02.933Z,21.80
2018-04-10T14:06:31.967Z,32.57
2018-04-10T14:09:00.247Z,21.67
2018-04-10T14:11:29.723Z,23.07
2018-04-10T14:13:58.099Z,20.50
2018-04-10T14:16:26.447Z,22.63
2018-04-10T14:18:54.781Z,27.53
2018-04-10T14:21:23.056Z,27.73
2018-04-10T14:23:51.458Z,22.60
2018-04-10T14:26:19.766Z,25.87
2018-04-10T14:28:48.067Z,23.63
2018-04-10T14:31:16.373Z,21.00
2018-04-10T14:33:44.681Z,31.43
2018-04-10T14:36:13.916Z,21.40
2018-04-10T14:38:42.991Z,19.83
2018-04-10T14:41:11.263Z,19.07
2018-04-10T14:43:39.567Z,20.10
2018-04-10T14:46:08.669Z,19.83
2018-04-10T14:48:37.924Z,19.50
2018-04-10T14:51:07.019Z,14.97
2018-04-10T14:53:35.309Z,15.57
2018-04-10T14:56:03.596Z,21.13
2018-04-10T14:58:32.666Z,22.17
2018-04-10T15:01:01.868Z,17.77
2018-04-10T15:03:30.199Z,15.43
2018-04-10T15:05:59.234Z,10.63
2018-04-10T15:08:27.624Z,15.23
2018-04-10T15:10:57.419Z,25.80
2018-04-10T15:13:25.697Z,21.97
2018-04-10T15:15:53.989Z,18.20
2018-04-10T15:18:22.262Z,25.63
2018-04-10T15:20:50.571Z,19.33
2018-04-10T15:23:18.835Z,30.57
2018-04-10T15:25:47.277Z,29.13
2018-04-10T15:28:16.421Z,25.47
2018-04-10T15:30:45.470Z,21.83
2018-04-10T15:33:13.768Z,25.03
2018-04-10T15:35:43.567Z,24.83
2018-04-10T15:38:11.852Z,29.23
2018-04-10T15:40:40.219Z,28.37
2018-04-10T15:43:08.478Z,28.57
2018-04-10T15:45:36.794Z,37.80
2018-04-10T15:48:05.107Z,27.80
2018-04-10T15:50:34.133Z,28.37
2018-04-10T15:53:03.190Z,31.33
2018-04-10T15:55:32.217Z,30.20
2018-04-10T15:58:00.647Z,40.53
2018-04-10T16:00:28.954Z,30.00
2018-04-10T16:02:57.656Z,31.97
2018-04-10T16:05:25.951Z,31.53
2018-04-10T16:07:54.223Z,24.53
2018-04-10T16:10:22.526Z,37.43
2018-04-10T16:12:50.800Z,34.60
2018-04-10T16:15:19.381Z,34.37
2018-04-10T16:17:49.192Z,36.50
2018-04-10T16:20:18.267Z,30.77
2018-04-10T16:22:46.590Z,32.33
2018-04-10T16:25:15.629Z,29.33
2018-04-10T16:27:43.914Z,33.27
2018-04-10T16:30:12.220Z,30.03
2018-04-10T16:32:41.270Z,40.20
2018-04-10T16:35:09.623Z,36.00
2018-04-10T16:37:37.899Z,42.67
2018-04-10T16:40:06.929Z,36.50
2018-04-10T16:42:35.315Z,41.93
2018-04-10T16:45:03.692Z,32.70
2018-04-10T16:47:32.040Z,46.73
2018-04-10T16:50:00.318Z,48.77
2018-04-10T16:52:28.869Z,23.70
2018-04-10T16:54:58.912Z,18.00
2018-04-10T16:57:27.236Z,20.97
2018-04-10T16:59:55.544Z,23.47
2018-04-10T17:02:24.157Z,21.43
2018-04-10T17:04:52.579Z,27.10
2018-04-10T17:07:21.762Z,30.40
2018-04-10T17:09:50.044Z,25.10
2018-04-10T17:12:19.120Z,18.50
2018-04-10T17:14:47.516Z,32.77
2018-04-10T17:17:15.873Z,30.43
2018-04-10T17:19:44.156Z,23.43
2018-04-10T17:22:12.455Z,25.50
2018-04-10T17:24:40.721Z,26.90
2018-04-10T17:27:08.998Z,32.93
2018-04-10T17:29:37.283Z,27.37
2018-04-10T17:32:05.578Z,26.00
2018-04-10T17:34:33.844Z,36.63
2018-04-10T17:37:02.125Z,33.00
2018-04-10T17:39:30.425Z,39.53
2018-04-10T17:41:59.496Z,35.60
2018-04-10T17:44:28.582Z,29.07
2018-04-10T17:46:56.882Z,18.43
2018-04-10T17:49:25.214Z,24.63
2018-04-10T17:51:53.518Z,27.30
2018-04-10T17:54:21.803Z,22.60
2018-04-10T17:56:50.884Z,26.63
2018-04-10T17:59:19.168Z,20.80
2018-04-10T18:01:47.469Z,15.57
2018-04-10T18:04:16.536Z,18.13
2018-04-10T18:06:44.893Z,15.70
2018-04-10T18:09:13.153Z,16.47
2018-04-10T18:11:41.437Z,10.67
2018-04-10T18:14:09.708Z,11.13
2018-04-10T18:16:38.019Z,9.60
2018-04-10T18:19:07.912Z,11.10
2018-04-10T18:21:36.167Z,9.80
2018-04-10T18:24:05.310Z,13.63
2018-04-10T18:26:34.358Z,12.93
2018-04-10T18:29:02.611Z,7.33
2018-04-10T18:31:30.881Z,18.40
2018-04-10T18:33:59.932Z,27.30
2018-04-10T18:36:28.233Z,11.87
2018-04-10T18:38:57.397Z,21.57
2018-04-10T18:41:25.660Z,15.30
2018-04-10T18:43:53.931Z,12.87
2018-04-10T18:46:22.189Z,15.40
2018-04-10T18:48:50.484Z,19.87
2018-04-10T18:51:18.743Z,21.30
2018-04-10T18:53:47.836Z,30.43
2018-04-10T18:56:16.122Z,22.80
2018-04-10T18:58:44.399Z,19.53
2018-04-10T19:01:12.654Z,23.33
2018-04-10T19:03:40.932Z,20.30
2018-04-10T19:06:09.209Z,25.10
2018-04-10T19:08:38.231Z,25.77
2018-04-10T19:11:06.527Z,21.27
2018-04-10T19:13:34.875Z,21.20
2018-04-10T19:16:03.191Z,19.73
2018-04-10T19:18:31.468Z,30.50
2018-04-10T19:20:59.740Z,25.33
2018-04-10T19:23:28.008Z,30.80
2018-04-10T19:25:56.291Z,26.93
2018-04-10T19:28:24.583Z,29.93
2018-04-10T19:30:52.851Z,30.67
2018-04-10T19:33:21.149Z,22.33
2018-04-10T19:35:50.205Z,26.80
2018-04-10T19:38:18.479Z,20.70
2018-04-10T19:40:46.736Z,21.30
2018-04-10T19:43:15.026Z,28.97
2018-04-10T19:45:43.293Z,28.10
2018-04-10T19:48:11.586Z,25.33
2018-04-10T19:50:39.873Z,26.10
2018-04-10T19:53:08.146Z,26.40
2018-04-10T19:55:37.210Z,27.53
2018-04-10T19:58:05.497Z,30.67
2018-04-10T20:00:33.776Z,32.93
2018-04-10T20:03:02.044Z,35.20
2018-04-10T20:05:30.315Z,39.17
2018-04-10T20:07:58.588Z,32.03
2018-04-10T20:10:26.866Z,38.80
2018-04-10T20:12:55.167Z,35.80
2018-04-10T20:15:23.468Z,33.97
2018-04-10T20:17:51.743Z,30.80
2018-04-10T20:20:20.013Z,31.73
2018-04-10T20:22:48.293Z,33.53
2018-04-10T20:25:16.559Z,32.20
2018-04-10T20:27:44.836Z,40.20
2018-04-10T20:30:13.143Z,28.90
2018-04-10T20:32:42.215Z,31.23
2018-04-10T20:35:10.484Z,36.10
2018-04-10T20:37:38.742Z,49.80
2018-04-10T20:40:07.047Z,40.50
2018-04-10T20:42:35.317Z,37.47
2018-04-10T20:45:03.629Z,40.93
2018-04-10T20:47:32.662Z,36.33
2018-04-10T20:50:00.925Z,37.33
2018-04-10T20:52:30.798Z,38.10
2018-04-10T20:54:59.834Z,39.40
2018-04-10T20:57:28.091Z,38.67
2018-04-10T20:59:57.627Z,41.33
2018-04-10T21:02:25.913Z,42.60
2018-04-10T21:04:54.186Z,44.50
2018-04-10T21:07:22.452Z,52.30
2018-04-10T21:09:50.721Z,48.43
2018-04-10T21:12:19.019Z,49.90
2018-04-10T21:14:47.299Z,64.43
2018-04-10T21:17:15.563Z,48.57
2018-04-10T21:19:43.839Z,51.50
2018-04-10T21:22:12.098Z,49.10
2018-04-10T21:24:40.373Z,54.27
2018-04-10T21:27:08.638Z,56.63
2018-04-10T21:29:36.961Z,47.57
2018-04-10T21:32:05.220Z,49.50
2018-04-10T21:34:33.496Z,47.83
2018-04-10T21:37:01.884Z,74.10
2018-04-10T21:39:30.155Z,66.83
2018-04-10T21:41:58.417Z,70.40
2018-04-10T21:44:26.698Z,59.70
2018-04-10T21:46:54.979Z,59.80
2018-04-10T21:49:23.247Z,56.20
2018-04-10T21:51:51.543Z,58.20
2018-04-10T21:54:19.822Z,60.77
2018-04-10T21:56:48.093Z,62.37
2018-04-10T21:59:16.357Z,58.30
2018-04-10T22:01:44.635Z,59.00
2018-04-10T22:04:12.920Z,66.57
2018-04-10T22:06:41.209Z,60.30
2018-04-10T22:09:09.597Z,62.83
2018-04-10T22:11:39.366Z,58.60
2018-04-10T22:14:07.649Z,70.03
2018-04-10T22:16:36.609Z,79.90
2018-04-10T22:19:05.654Z,67.53
2018-04-10T22:21:33.927Z,82.23
2018-04-10T22:24:02.200Z,64.77
2018-04-10T22:26:30.462Z,60.87
2018-04-10T22:28:58.783Z,51.00
2018-04-10T22:31:27.068Z,41.80
2018-04-10T22:33:56.089Z,38.10
2018-04-10T22:36:24.349Z,17.43
2018-04-10T22:38:52.619Z,23.20
2018-04-10T22:41:20.897Z,26.87
2018-04-10T22:43:49.177Z,23.83
2018-04-10T22:46:17.449Z,23.17
2018-04-10T22:48:45.709Z,20.17
2018-04-10T22:51:13.990Z,20.20
2018-04-10T22:53:42.279Z,30.40
2018-04-10T22:56:10.572Z,16.07
2018-04-10T22:58:38.830Z,30.43
2018-04-10T23:01:07.108Z,24.00
2018-04-10T23:03:35.390Z,17.70
2018-04-10T23:06:03.659Z,22.23
2018-04-10T23:08:31.972Z,17.90
2018-04-10T23:11:00.247Z,11.73
2018-04-10T23:13:28.508Z,17.90
2018-04-10T23:15:56.797Z,15.80
2018-04-10T23:18:25.070Z,18.47
2018-04-10T23:20:53.365Z,18.13
2018-04-10T23:23:21.633Z,12.97
2018-04-10T23:25:49.897Z,18.03
2018-04-10T23:28:18.180Z,11.43
2018-04-10T23:30:46.431Z,9.17
2018-04-10T23:33:15.465Z,13.07
2018-04-10T23:35:43.739Z,15.43
2018-04-10T23:38:12.001Z,18.30
2018-04-10T23:40:40.277Z,15.20
2018-04-10T23:43:08.563Z,13.37
2018-04-10T23:45:36.828Z,16.00
2018-04-10T23:48:05.139Z,15.47
2018-04-10T23:50:33.414Z,19.40
2018-04-10T23:53:01.693Z,17.80
2018-04-10T23:55:29.965Z,19.20
2018-04-10T23:57:58.345Z,16.80
